createdAt,value
2023-01-22T00:02:17.550Z,99183.41
2023-01-22T00:07:20.003Z,99189.45
2023-01-22T00:12:28.745Z,99191.55
2023-01-22T00:17:31.165Z,99193.85
2023-01-22T00:22:33.264Z,99196.52
2023-01-22T00:27:35.607Z,99206.92
2023-01-22T00:32:40.288Z,99211.58
2023-01-22T00:37:47.653Z,99213.84
2023-01-22T00:42:50.482Z,99216.36
2023-01-22T00:47:52.452Z,99219.33
2023-01-22T00:52:55.123Z,99219.05
2023-01-22T00:57:57.258Z,99223.04
2023-01-22T01:03:20.785Z,99223.91
2023-01-22T01:08:24.060Z,99233.99
2023-01-22T01:13:27.863Z,99237.89
2023-01-22T01:18:30.979Z,99232.48
2023-01-22T01:23:34.137Z,99237.71
2023-01-22T01:28:37.535Z,99236.41
2023-01-22T01:33:39.868Z,99240.35
2023-01-22T01:38:41.984Z,99243.10
2023-01-22T01:43:44.163Z,99235.53
2023-01-22T01:48:49.174Z,99229.08
2023-01-22T01:53:52.612Z,99231.85
2023-01-22T01:59:00.912Z,99235.66
2023-01-22T02:04:04.014Z,99241.38
2023-01-22T02:09:06.166Z,99249.50
2023-01-22T02:14:14.577Z,99255.23
2023-01-22T02:19:16.569Z,99260.71
2023-01-22T02:24:21.306Z,99270.92
2023-01-22T02:29:26.604Z,99269.46
2023-01-22T02:34:28.741Z,99277.27
2023-01-22T02:39:31.027Z,99276.67
2023-01-22T02:44:34.359Z,99289.38
2023-01-22T02:49:36.997Z,99289.86
2023-01-22T02:54:39.043Z,99287.80
2023-01-22T02:59:41.104Z,99286.91
2023-01-22T03:04:46.749Z,99292.14
2023-01-22T03:09:49.441Z,99288.02
2023-01-22T03:15:10.101Z,99280.64
2023-01-22T03:20:30.859Z,99279.34
2023-01-22T03:25:33.417Z,99289.55
2023-01-22T03:30:36.198Z,99289.70
2023-01-22T03:35:39.142Z,99293.35
2023-01-22T03:40:48.792Z,99289.46
2023-01-22T03:45:51.569Z,99291.80
2023-01-22T03:51:06.265Z,99294.84
2023-01-22T03:56:12.938Z,99298.49
2023-01-22T04:01:17.804Z,99295.48
2023-01-22T04:06:22.223Z,99291.66
2023-01-22T04:11:24.522Z,99284.85
2023-01-22T04:16:26.732Z,99285.73
2023-01-22T04:21:50.834Z,99288.98
2023-01-22T04:26:55.665Z,99294.65
2023-01-22T04:31:57.934Z,99282.21
2023-01-22T04:37:19.976Z,99279.74
2023-01-22T04:42:23.257Z,99281.77
2023-01-22T04:47:25.543Z,99286.88
2023-01-22T04:52:27.844Z,99292.73
2023-01-22T04:57:31.003Z,99299.70
2023-01-22T05:02:34.234Z,99304.81
2023-01-22T05:07:37.478Z,99300.02
2023-01-22T05:12:39.677Z,99300.73
2023-01-22T05:17:41.774Z,99305.86
2023-01-22T05:22:44.427Z,99310.39
2023-01-22T05:27:46.903Z,99312.86
2023-01-22T05:32:57.568Z,99307.60
2023-01-22T05:38:00.527Z,99314.58
2023-01-22T05:43:04.511Z,99318.25
2023-01-22T05:48:08.394Z,99321.20
2023-01-22T05:53:15.432Z,99323.88
2023-01-22T05:58:20.049Z,99327.56
2023-01-22T06:03:27.786Z,99324.05
2023-01-22T06:08:34.399Z,99324.67
2023-01-22T06:13:39.620Z,99340.50
2023-01-22T06:18:49.974Z,99351.38
2023-01-22T06:23:53.153Z,99355.00
2023-01-22T06:28:57.479Z,99362.58
2023-01-22T06:34:00.272Z,99369.02
2023-01-22T06:39:02.543Z,99366.39
2023-01-22T06:44:14.508Z,99372.46
2023-01-22T06:49:17.396Z,99367.00
2023-01-22T06:54:19.532Z,99373.27
2023-01-22T06:59:21.781Z,99374.54
2023-01-22T07:04:24.115Z,99378.86
2023-01-22T07:09:28.763Z,99379.65
2023-01-22T07:14:36.729Z,99378.61
2023-01-22T07:19:39.789Z,99385.69
2023-01-22T07:24:41.757Z,99387.80
2023-01-22T07:29:44.405Z,99401.96
2023-01-22T07:34:46.837Z,99416.48
2023-01-22T07:39:49.441Z,99419.72
2023-01-22T07:44:51.942Z,99408.98
2023-01-22T07:50:03.251Z,99422.84
2023-01-22T07:55:11.863Z,99427.77
2023-01-22T08:00:16.269Z,99429.73
2023-01-22T08:05:26.515Z,99426.91
2023-01-22T08:10:29.002Z,99425.00
2023-01-22T08:15:33.370Z,99443.45
2023-01-22T08:20:35.671Z,99446.55
2023-01-22T08:25:37.899Z,99440.96
2023-01-22T08:30:46.387Z,99446.73
2023-01-22T08:35:50.176Z,99439.42
2023-01-22T08:40:53.250Z,99435.82
2023-01-22T08:45:56.044Z,99432.41
2023-01-22T08:51:02.585Z,99432.44
2023-01-22T08:56:05.610Z,99435.84
2023-01-22T09:01:07.804Z,99435.21
2023-01-22T09:06:10.579Z,99448.34
2023-01-22T09:11:12.594Z,99441.58
2023-01-22T09:16:15.253Z,99442.38
2023-01-22T09:21:18.316Z,99438.41
2023-01-22T09:26:22.859Z,99430.73
2023-01-22T09:31:24.882Z,99428.08
2023-01-22T09:36:30.474Z,99435.48
2023-01-22T09:41:40.331Z,99438.20
2023-01-22T09:47:17.852Z,99439.61
2023-01-22T09:52:32.780Z,99433.04
2023-01-22T09:57:34.947Z,99433.48
2023-01-22T10:02:46.298Z,99437.01
2023-01-22T10:07:57.705Z,99431.00
2023-01-22T10:13:10.978Z,99439.00
2023-01-22T10:18:25.313Z,99445.70
2023-01-22T10:23:27.570Z,99451.22
2023-01-22T10:28:30.876Z,99451.03
2023-01-22T10:33:38.944Z,99459.53
2023-01-22T10:38:41.368Z,99459.84
2023-01-22T10:43:43.387Z,99458.10
2023-01-22T10:48:45.568Z,99458.63
2023-01-22T10:53:58.095Z,99455.54
2023-01-22T10:59:05.563Z,99447.33
2023-01-22T11:04:30.069Z,99447.20
2023-01-22T11:09:54.652Z,99450.56
2023-01-22T11:15:32.383Z,99451.08
2023-01-22T11:20:46.599Z,99448.48
2023-01-22T11:26:11.360Z,99448.30
2023-01-22T11:31:44.950Z,99441.80
2023-01-22T11:37:05.047Z,99441.86
2023-01-22T11:42:25.915Z,99442.67
2023-01-22T11:47:34.503Z,99443.48
2023-01-22T11:52:54.381Z,99453.77
2023-01-22T11:58:32.049Z,99451.55
2023-01-22T12:03:44.675Z,99442.30
2023-01-22T12:09:01.549Z,99444.36
2023-01-22T12:14:19.799Z,99446.38
2023-01-22T12:19:49.671Z,99445.75
2023-01-22T12:25:01.327Z,99453.42
2023-01-22T12:30:43.907Z,99459.94
2023-01-22T12:35:53.603Z,99471.08
2023-01-22T12:41:18.375Z,99474.74
2023-01-22T12:46:42.812Z,99481.67
2023-01-22T12:51:53.583Z,99480.98
2023-01-22T12:57:17.487Z,99480.08
2023-01-22T13:02:25.030Z,99491.94
2023-01-22T13:07:29.997Z,99496.30
2023-01-22T13:12:47.028Z,99494.78
2023-01-22T13:18:07.810Z,99494.89
2023-01-22T13:23:21.385Z,99502.23
2023-01-22T13:28:25.301Z,99503.66
2023-01-22T13:33:29.100Z,99503.90
2023-01-22T13:38:35.380Z,99510.05
2023-01-22T13:43:39.356Z,99519.03
2023-01-22T13:48:42.213Z,99524.69
2023-01-22T13:53:50.126Z,99532.64
2023-01-22T13:59:05.127Z,99537.13
2023-01-22T14:04:24.027Z,99534.33
2023-01-22T14:09:39.001Z,99534.80
2023-01-22T14:14:42.085Z,99537.45
2023-01-22T14:19:44.560Z,99544.92
2023-01-22T14:24:47.578Z,99548.21
2023-01-22T14:29:50.593Z,99547.09
2023-01-22T14:34:52.488Z,99551.67
2023-01-22T14:39:54.405Z,99553.44
2023-01-22T14:44:56.553Z,99561.61
2023-01-22T14:49:58.905Z,99564.58
2023-01-22T14:55:00.797Z,99575.48
2023-01-22T15:00:05.283Z,99576.18
2023-01-22T15:05:08.791Z,99584.00
2023-01-22T15:10:11.814Z,99583.60
2023-01-22T15:15:14.776Z,99598.06
2023-01-22T15:20:18.233Z,99604.58
2023-01-22T15:25:20.665Z,99610.06
2023-01-22T15:30:23.727Z,99614.27
2023-01-22T15:35:25.766Z,99619.38
2023-01-22T15:40:27.809Z,99625.18
2023-01-22T15:45:31.000Z,99631.80
2023-01-22T15:50:36.112Z,99637.64
2023-01-22T15:55:38.227Z,99639.15
2023-01-22T16:00:40.510Z,99649.21
2023-01-22T16:05:43.468Z,99649.45
2023-01-22T16:10:45.577Z,99655.67
2023-01-22T16:15:59.177Z,99653.02
2023-01-22T16:21:06.281Z,99663.79
2023-01-22T16:26:13.936Z,99674.30
2023-01-22T16:31:23.785Z,99675.84
2023-01-22T16:36:29.572Z,99681.44
2023-01-22T16:41:34.512Z,99689.04
2023-01-22T16:46:43.910Z,99690.83
2023-01-22T16:51:48.938Z,99698.30
2023-01-22T16:56:52.327Z,99704.27
2023-01-22T17:01:55.708Z,99706.20
2023-01-22T17:07:01.207Z,99707.63
2023-01-22T17:12:05.782Z,99710.35
2023-01-22T17:17:09.193Z,99718.73
2023-01-22T17:22:13.727Z,99722.91
2023-01-22T17:27:18.796Z,99724.20
2023-01-22T17:32:22.718Z,99726.96
2023-01-22T17:37:24.833Z,99731.96
2023-01-22T17:42:27.159Z,99746.58
2023-01-22T17:47:29.289Z,99757.30
2023-01-22T17:52:31.675Z,99761.64
2023-01-22T17:57:37.281Z,99774.02
2023-01-22T18:02:40.657Z,99778.33
2023-01-22T18:08:02.839Z,99781.51
2023-01-22T18:13:04.991Z,99785.48
2023-01-22T18:18:07.518Z,99797.58
2023-01-22T18:23:11.096Z,99801.70
2023-01-22T18:28:15.148Z,99807.13
2023-01-22T18:33:18.977Z,99804.13
2023-01-22T18:38:25.267Z,99808.30
2023-01-22T18:43:27.406Z,99812.32
2023-01-22T18:48:29.465Z,99822.79
2023-01-22T18:53:32.722Z,99824.18
2023-01-22T18:58:34.837Z,99829.66
2023-01-22T19:03:36.797Z,99834.86
2023-01-22T19:09:03.680Z,99844.29
2023-01-22T19:14:09.173Z,99848.66
2023-01-22T19:19:13.685Z,99849.80
2023-01-22T19:24:35.769Z,99856.02
2023-01-22T19:29:38.245Z,99853.38
2023-01-22T19:34:42.494Z,99851.72
2023-01-22T19:39:44.822Z,99856.44
2023-01-22T19:44:47.469Z,99863.38
2023-01-22T19:49:51.947Z,99863.10
2023-01-22T19:54:56.139Z,99862.14
2023-01-22T19:59:59.880Z,99860.51
2023-01-22T20:05:02.111Z,99854.94
2023-01-22T20:10:05.260Z,99862.54
2023-01-22T20:15:08.604Z,99866.91
2023-01-22T20:20:13.250Z,99879.39
2023-01-22T20:25:15.868Z,99876.88
2023-01-22T20:30:19.153Z,99886.54
2023-01-22T20:35:21.453Z,99891.98
2023-01-22T20:40:25.513Z,99900.60
2023-01-22T20:45:28.559Z,99900.40
2023-01-22T20:50:30.841Z,99902.64
2023-01-22T20:55:34.418Z,99906.05
2023-01-22T21:00:37.547Z,99908.58
2023-01-22T21:05:40.967Z,99917.88
2023-01-22T21:10:43.339Z,99912.31
2023-01-22T21:15:46.930Z,99913.70
2023-01-22T21:20:50.291Z,99925.95
2023-01-22T21:25:52.225Z,99935.17
2023-01-22T21:30:54.467Z,99930.05
2023-01-22T21:35:56.320Z,99941.59
2023-01-22T21:41:13.713Z,99950.96
2023-01-22T21:46:27.769Z,99965.30
2023-01-22T21:51:32.261Z,99977.97
2023-01-22T21:56:34.527Z,99985.50
2023-01-22T22:01:37.346Z,99991.80
2023-01-22T22:06:39.710Z,100006.21
2023-01-22T22:11:43.484Z,99999.77
2023-01-22T22:16:46.130Z,99997.00
2023-01-22T22:21:51.471Z,100000.59
2023-01-22T22:26:53.581Z,99997.25
2023-01-22T22:31:55.771Z,100007.98
2023-01-22T22:37:00.733Z,100006.70
2023-01-22T22:42:05.016Z,100001.92
2023-01-22T22:47:07.001Z,100002.05
2023-01-22T22:52:12.838Z,99993.47
2023-01-22T22:57:23.914Z,99991.85
2023-01-22T23:02:26.898Z,99993.45
2023-01-22T23:07:32.243Z,99991.69
2023-01-22T23:12:34.283Z,99993.63
2023-01-22T23:17:38.706Z,100003.87
2023-01-22T23:22:45.181Z,100023.35
2023-01-22T23:27:47.761Z,100019.51
2023-01-22T23:32:50.147Z,100017.08
2023-01-22T23:37:57.020Z,100024.34
2023-01-22T23:43:00.947Z,100005.33
2023-01-22T23:48:03.019Z,100007.55
2023-01-22T23:53:07.872Z,100022.87
2023-01-22T23:58:10.468Z,100036.45
